sensor_id;sensor_type;location;lat;lon;timestamp;P1;durP1;ratioP1;P2;durP2;ratioP2
63095;SDS011;49184;55.596;37.770;2022-12-10T01:07:16;127.93;;;27.90;;
63095;SDS011;49184;55.596;37.770;2022-12-10T01:18:37;102.28;;;23.90;;
63095;SDS011;49184;55.596;37.770;2022-12-10T01:28:55;94.38;;;25.67;;
63095;SDS011;49184;55.596;37.770;2022-12-10T01:31:57;89.13;;;24.60;;
63095;SDS011;49184;55.596;37.770;2022-12-10T02:22:48;72.00;;;20.55;;
63095;SDS011;49184;55.596;37.770;2022-12-10T02:29:46;69.28;;;22.13;;
63095;SDS011;49184;55.596;37.770;2022-12-10T02:37:21;59.78;;;19.90;;
63095;SDS011;49184;55.596;37.770;2022-12-10T02:41:06;57.47;;;18.33;;
63095;SDS011;49184;55.596;37.770;2022-12-10T02:44:38;61.13;;;20.55;;
63095;SDS011;49184;55.596;37.770;2022-12-10T02:54:33;55.17;;;19.58;;
63095;SDS011;49184;55.596;37.770;2022-12-10T02:58:15;61.67;;;20.27;;
63095;SDS011;49184;55.596;37.770;2022-12-10T03:11:39;66.13;;;20.80;;
63095;SDS011;49184;55.596;37.770;2022-12-10T03:14:47;65.65;;;21.17;;
63095;SDS011;49184;55.596;37.770;2022-12-10T03:17:46;66.43;;;21.02;;
63095;SDS011;49184;55.596;37.770;2022-12-10T03:20:16;68.45;;;21.83;;
63095;SDS011;49184;55.596;37.770;2022-12-10T03:23:37;70.15;;;21.55;;
63095;SDS011;49184;55.596;37.770;2022-12-10T03:33:42;64.15;;;20.77;;
63095;SDS011;49184;55.596;37.770;2022-12-10T03:39:56;69.85;;;23.05;;
63095;SDS011;49184;55.596;37.770;2022-12-10T03:45:58;78.53;;;24.75;;
63095;SDS011;49184;55.596;37.770;2022-12-10T03:51:44;85.13;;;24.88;;
63095;SDS011;49184;55.596;37.770;2022-12-10T03:54:55;85.90;;;25.35;;
63095;SDS011;49184;55.596;37.770;2022-12-10T03:58:15;84.90;;;26.33;;
63095;SDS011;49184;55.596;37.770;2022-12-10T04:00:41;93.70;;;26.92;;
63095;SDS011;49184;55.596;37.770;2022-12-10T04:17:52;86.93;;;25.85;;
63095;SDS011;49184;55.596;37.770;2022-12-10T04:20:20;101.18;;;27.38;;
63095;SDS011;49184;55.596;37.770;2022-12-10T04:23:08;103.57;;;27.35;;
63095;SDS011;49184;55.596;37.770;2022-12-10T04:29:09;86.43;;;26.30;;
63095;SDS011;49184;55.596;37.770;2022-12-10T04:31:36;97.97;;;28.35;;
63095;SDS011;49184;55.596;37.770;2022-12-10T04:34:27;89.13;;;27.00;;
63095;SDS011;49184;55.596;37.770;2022-12-10T04:36:58;92.50;;;29.30;;
63095;SDS011;49184;55.596;37.770;2022-12-10T04:39:51;107.60;;;30.05;;
63095;SDS011;49184;55.596;37.770;2022-12-10T04:42:32;99.00;;;28.02;;
63095;SDS011;49184;55.596;37.770;2022-12-10T04:45:28;90.32;;;27.20;;
63095;SDS011;49184;55.596;37.770;2022-12-10T04:48:14;84.05;;;27.77;;
63095;SDS011;49184;55.596;37.770;2022-12-10T04:50:51;90.28;;;27.73;;
63095;SDS011;49184;55.596;37.770;2022-12-10T04:54:18;80.50;;;25.30;;
63095;SDS011;49184;55.596;37.770;2022-12-10T05:01:07;97.00;;;27.83;;
63095;SDS011;49184;55.596;37.770;2022-12-10T05:04:44;99.50;;;31.85;;
63095;SDS011;49184;55.596;37.770;2022-12-10T05:07:11;92.47;;;28.58;;
63095;SDS011;49184;55.596;37.770;2022-12-10T05:09:37;92.05;;;29.40;;
63095;SDS011;49184;55.596;37.770;2022-12-10T05:15:01;95.95;;;28.42;;
63095;SDS011;49184;55.596;37.770;2022-12-10T05:17:29;95.07;;;28.67;;
63095;SDS011;49184;55.596;37.770;2022-12-10T05:20:41;91.30;;;26.38;;
63095;SDS011;49184;55.596;37.770;2022-12-10T05:27:32;86.22;;;26.38;;
63095;SDS011;49184;55.596;37.770;2022-12-10T05:29:59;84.55;;;25.70;;
63095;SDS011;49184;55.596;37.770;2022-12-10T05:32:39;91.28;;;26.70;;
63095;SDS011;49184;55.596;37.770;2022-12-10T05:39:10;95.28;;;27.00;;
63095;SDS011;49184;55.596;37.770;2022-12-10T05:42:27;78.07;;;24.38;;
63095;SDS011;49184;55.596;37.770;2022-12-10T05:44:57;81.25;;;24.58;;
63095;SDS011;49184;55.596;37.770;2022-12-10T06:04:23;87.25;;;23.88;;
63095;SDS011;49184;55.596;37.770;2022-12-10T06:16:47;97.15;;;29.73;;
63095;SDS011;49184;55.596;37.770;2022-12-10T07:25:03;112.80;;;28.50;;
63095;SDS011;49184;55.596;37.770;2022-12-10T07:27:32;101.72;;;29.08;;
63095;SDS011;49184;55.596;37.770;2022-12-10T07:30:40;107.70;;;28.30;;
63095;SDS011;49184;55.596;37.770;2022-12-10T07:36:15;122.95;;;36.65;;
63095;SDS011;49184;55.596;37.770;2022-12-10T07:38:41;103.53;;;27.88;;
63095;SDS011;49184;55.596;37.770;2022-12-10T07:41:09;176.38;;;57.15;;
63095;SDS011;49184;55.596;37.770;2022-12-10T07:43:47;121.18;;;33.78;;
63095;SDS011;49184;55.596;37.770;2022-12-10T07:46:15;126.72;;;33.58;;
63095;SDS011;49184;55.596;37.770;2022-12-10T07:48:43;135.80;;;31.10;;
63095;SDS011;49184;55.596;37.770;2022-12-10T07:51:10;103.53;;;26.45;;
63095;SDS011;49184;55.596;37.770;2022-12-10T07:53:38;139.88;;;29.27;;
63095;SDS011;49184;55.596;37.770;2022-12-10T07:56:07;104.97;;;28.55;;
63095;SDS011;49184;55.596;37.770;2022-12-10T07:58:34;129.97;;;31.43;;
63095;SDS011;49184;55.596;37.770;2022-12-10T08:01:06;145.45;;;32.05;;
63095;SDS011;49184;55.596;37.770;2022-12-10T08:03:35;165.25;;;31.23;;
63095;SDS011;49184;55.596;37.770;2022-12-10T08:06:09;159.07;;;32.20;;
63095;SDS011;49184;55.596;37.770;2022-12-10T08:08:40;147.35;;;30.17;;
63095;SDS011;49184;55.596;37.770;2022-12-10T08:11:08;118.15;;;28.48;;
63095;SDS011;49184;55.596;37.770;2022-12-10T08:13:36;128.68;;;29.05;;
63095;SDS011;49184;55.596;37.770;2022-12-10T08:16:13;154.82;;;31.33;;
63095;SDS011;49184;55.596;37.770;2022-12-10T08:18:56;161.45;;;30.67;;
63095;SDS011;49184;55.596;37.770;2022-12-10T08:24:40;146.40;;;34.88;;
63095;SDS011;49184;55.596;37.770;2022-12-10T08:29:53;197.38;;;35.67;;
63095;SDS011;49184;55.596;37.770;2022-12-10T08:32:22;275.80;;;42.95;;
63095;SDS011;49184;55.596;37.770;2022-12-10T08:34:54;221.80;;;55.85;;
63095;SDS011;49184;55.596;37.770;2022-12-10T08:37:25;147.15;;;35.80;;
63095;SDS011;49184;55.596;37.770;2022-12-10T08:39:53;194.32;;;41.85;;
63095;SDS011;49184;55.596;37.770;2022-12-10T08:42:20;209.93;;;44.55;;
63095;SDS011;49184;55.596;37.770;2022-12-10T08:44:59;163.13;;;41.40;;
63095;SDS011;49184;55.596;37.770;2022-12-10T08:47:42;211.57;;;34.05;;
63095;SDS011;49184;55.596;37.770;2022-12-10T08:51:03;269.42;;;40.78;;
63095;SDS011;49184;55.596;37.770;2022-12-10T09:11:46;109.43;;;27.85;;
63095;SDS011;49184;55.596;37.770;2022-12-10T09:15:34;118.85;;;28.92;;
63095;SDS011;49184;55.596;37.770;2022-12-10T09:18:06;116.80;;;29.33;;
63095;SDS011;49184;55.596;37.770;2022-12-10T09:21:06;121.40;;;27.77;;
63095;SDS011;49184;55.596;37.770;2022-12-10T09:23:34;129.00;;;28.85;;
63095;SDS011;49184;55.596;37.770;2022-12-10T09:26:00;158.82;;;34.53;;
63095;SDS011;49184;55.596;37.770;2022-12-10T09:28:30;152.63;;;34.08;;
63095;SDS011;49184;55.596;37.770;2022-12-10T09:31:02;146.13;;;38.20;;
63095;SDS011;49184;55.596;37.770;2022-12-10T09:33:33;155.23;;;36.95;;
63095;SDS011;49184;55.596;37.770;2022-12-10T09:36:04;175.43;;;38.15;;
63095;SDS011;49184;55.596;37.770;2022-12-10T09:38:35;163.27;;;35.30;;
63095;SDS011;49184;55.596;37.770;2022-12-10T09:43:57;162.77;;;37.28;;
63095;SDS011;49184;55.596;37.770;2022-12-10T09:46:59;168.93;;;37.15;;
63095;SDS011;49184;55.596;37.770;2022-12-10T09:52:35;139.30;;;34.40;;
63095;SDS011;49184;55.596;37.770;2022-12-10T09:55:10;182.20;;;46.92;;
63095;SDS011;49184;55.596;37.770;2022-12-10T09:57:50;167.20;;;38.20;;
63095;SDS011;49184;55.596;37.770;2022-12-10T10:10:46;198.57;;;49.20;;
63095;SDS011;49184;55.596;37.770;2022-12-10T10:17:15;230.95;;;55.92;;
63095;SDS011;49184;55.596;37.770;2022-12-10T10:20:01;208.35;;;40.13;;
63095;SDS011;49184;55.596;37.770;2022-12-10T10:22:32;233.68;;;37.45;;
63095;SDS011;49184;55.596;37.770;2022-12-10T10:25:22;202.55;;;44.38;;
63095;SDS011;49184;55.596;37.770;2022-12-10T10:31:19;189.23;;;34.17;;
63095;SDS011;49184;55.596;37.770;2022-12-10T10:34:18;149.93;;;32.63;;
63095;SDS011;49184;55.596;37.770;2022-12-10T10:36:58;197.88;;;37.47;;
63095;SDS011;49184;55.596;37.770;2022-12-10T10:39:32;165.75;;;34.80;;
63095;SDS011;49184;55.596;37.770;2022-12-10T10:42:07;166.93;;;34.33;;
63095;SDS011;49184;55.596;37.770;2022-12-10T10:44:36;154.98;;;35.40;;
63095;SDS011;49184;55.596;37.770;2022-12-10T10:47:26;138.32;;;35.20;;
63095;SDS011;49184;55.596;37.770;2022-12-10T10:50:00;139.85;;;37.15;;
63095;SDS011;49184;55.596;37.770;2022-12-10T10:52:37;125.60;;;32.10;;
63095;SDS011;49184;55.596;37.770;2022-12-10T10:55:31;132.88;;;33.28;;
63095;SDS011;49184;55.596;37.770;2022-12-10T10:58:02;206.48;;;34.15;;
63095;SDS011;49184;55.596;37.770;2022-12-10T11:00:28;150.33;;;33.97;;
63095;SDS011;49184;55.596;37.770;2022-12-10T11:02:57;170.07;;;36.20;;
63095;SDS011;49184;55.596;37.770;2022-12-10T11:05:29;146.35;;;36.45;;
63095;SDS011;49184;55.596;37.770;2022-12-10T11:08:06;218.07;;;34.63;;
63095;SDS011;49184;55.596;37.770;2022-12-10T11:10:48;168.43;;;37.22;;
63095;SDS011;49184;55.596;37.770;2022-12-10T11:13:29;196.02;;;37.03;;
63095;SDS011;49184;55.596;37.770;2022-12-10T11:16:11;209.48;;;33.72;;
63095;SDS011;49184;55.596;37.770;2022-12-10T11:18:51;233.05;;;34.63;;
63095;SDS011;49184;55.596;37.770;2022-12-10T11:21:23;188.75;;;34.17;;
63095;SDS011;49184;55.596;37.770;2022-12-10T11:47:56;96.85;;;26.23;;
63095;SDS011;49184;55.596;37.770;2022-12-10T11:50:38;191.75;;;35.05;;
63095;SDS011;49184;55.596;37.770;2022-12-10T11:53:26;271.23;;;40.72;;
63095;SDS011;49184;55.596;37.770;2022-12-10T11:59:34;234.23;;;36.88;;
63095;SDS011;49184;55.596;37.770;2022-12-10T12:05:19;124.45;;;26.60;;
63095;SDS011;49184;55.596;37.770;2022-12-10T12:15:13;75.80;;;22.17;;
63095;SDS011;49184;55.596;37.770;2022-12-10T12:17:24;118.03;;;27.52;;
63095;SDS011;49184;55.596;37.770;2022-12-10T12:20:04;89.30;;;24.92;;
63095;SDS011;49184;55.596;37.770;2022-12-10T12:22:42;73.93;;;21.95;;
63095;SDS011;49184;55.596;37.770;2022-12-10T12:30:40;69.15;;;22.70;;
63095;SDS011;49184;55.596;37.770;2022-12-10T12:33:13;87.03;;;28.20;;
63095;SDS011;49184;55.596;37.770;2022-12-10T12:35:43;113.65;;;27.75;;
63095;SDS011;49184;55.596;37.770;2022-12-10T12:38:26;164.80;;;33.55;;
63095;SDS011;49184;55.596;37.770;2022-12-10T12:43:42;145.82;;;31.20;;
63095;SDS011;49184;55.596;37.770;2022-12-10T12:46:30;112.40;;;29.42;;
63095;SDS011;49184;55.596;37.770;2022-12-10T12:51:55;127.32;;;29.27;;
63095;SDS011;49184;55.596;37.770;2022-12-10T12:54:35;132.05;;;31.08;;
63095;SDS011;49184;55.596;37.770;2022-12-10T13:00:10;151.07;;;30.13;;
63095;SDS011;49184;55.596;37.770;2022-12-10T13:06:38;105.88;;;25.23;;
63095;SDS011;49184;55.596;37.770;2022-12-10T13:09:28;104.35;;;27.58;;
63095;SDS011;49184;55.596;37.770;2022-12-10T13:25:58;142.32;;;24.05;;
63095;SDS011;49184;55.596;37.770;2022-12-10T13:37:26;143.50;;;29.52;;
63095;SDS011;49184;55.596;37.770;2022-12-10T13:40:41;103.70;;;25.85;;
63095;SDS011;49184;55.596;37.770;2022-12-10T13:43:54;94.20;;;22.50;;
63095;SDS011;49184;55.596;37.770;2022-12-10T13:50:31;1103.95;;;107.28;;
63095;SDS011;49184;55.596;37.770;2022-12-10T13:56:08;527.85;;;53.60;;
63095;SDS011;49184;55.596;37.770;2022-12-10T13:59:07;550.38;;;58.30;;
63095;SDS011;49184;55.596;37.770;2022-12-10T14:01:48;127.65;;;27.15;;
63095;SDS011;49184;55.596;37.770;2022-12-10T14:07:47;157.77;;;28.60;;
63095;SDS011;49184;55.596;37.770;2022-12-10T14:10:29;331.70;;;43.65;;
63095;SDS011;49184;55.596;37.770;2022-12-10T14:14:02;425.17;;;58.75;;
63095;SDS011;49184;55.596;37.770;2022-12-10T14:16:52;253.38;;;38.40;;
63095;SDS011;49184;55.596;37.770;2022-12-10T14:19:19;239.68;;;37.45;;
63095;SDS011;49184;55.596;37.770;2022-12-10T14:21:52;154.25;;;29.95;;
63095;SDS011;49184;55.596;37.770;2022-12-10T14:24:41;131.88;;;32.67;;
63095;SDS011;49184;55.596;37.770;2022-12-10T14:27:43;143.32;;;28.25;;
63095;SDS011;49184;55.596;37.770;2022-12-10T14:30:32;182.95;;;29.80;;
63095;SDS011;49184;55.596;37.770;2022-12-10T14:33:09;241.00;;;36.83;;
63095;SDS011;49184;55.596;37.770;2022-12-10T14:35:41;176.30;;;31.55;;
63095;SDS011;49184;55.596;37.770;2022-12-10T14:38:17;145.93;;;27.20;;
63095;SDS011;49184;55.596;37.770;2022-12-10T14:41:03;141.23;;;27.92;;
63095;SDS011;49184;55.596;37.770;2022-12-10T14:43:38;159.02;;;29.75;;
63095;SDS011;49184;55.596;37.770;2022-12-10T14:53:18;257.10;;;36.72;;
63095;SDS011;49184;55.596;37.770;2022-12-10T14:55:53;183.88;;;29.25;;
63095;SDS011;49184;55.596;37.770;2022-12-10T15:01:54;123.80;;;26.10;;
63095;SDS011;49184;55.596;37.770;2022-12-10T15:07:58;63.28;;;20.15;;
63095;SDS011;49184;55.596;37.770;2022-12-10T15:10:38;63.97;;;22.02;;
63095;SDS011;49184;55.596;37.770;2022-12-10T15:13:18;60.75;;;20.80;;
63095;SDS011;49184;55.596;37.770;2022-12-10T15:15:51;75.47;;;22.65;;
63095;SDS011;49184;55.596;37.770;2022-12-10T15:18:19;52.35;;;20.08;;
63095;SDS011;49184;55.596;37.770;2022-12-10T15:21:15;56.05;;;19.92;;
63095;SDS011;49184;55.596;37.770;2022-12-10T15:23:45;57.45;;;20.92;;
63095;SDS011;49184;55.596;37.770;2022-12-10T15:26:17;76.15;;;22.58;;
63095;SDS011;49184;55.596;37.770;2022-12-10T15:28:46;56.40;;;20.30;;
63095;SDS011;49184;55.596;37.770;2022-12-10T15:31:21;65.53;;;23.25;;
63095;SDS011;49184;55.596;37.770;2022-12-10T15:33:56;74.60;;;25.75;;
63095;SDS011;49184;55.596;37.770;2022-12-10T15:36:32;51.92;;;20.60;;
63095;SDS011;49184;55.596;37.770;2022-12-10T15:41:42;54.67;;;21.15;;
63095;SDS011;49184;55.596;37.770;2022-12-10T15:47:20;51.33;;;18.58;;
63095;SDS011;49184;55.596;37.770;2022-12-10T15:49:51;54.20;;;21.00;;
63095;SDS011;49184;55.596;37.770;2022-12-10T15:52:23;44.83;;;19.20;;
63095;SDS011;49184;55.596;37.770;2022-12-10T15:55:02;47.50;;;19.83;;
63095;SDS011;49184;55.596;37.770;2022-12-10T15:57:37;41.33;;;18.42;;
63095;SDS011;49184;55.596;37.770;2022-12-10T16:00:17;44.13;;;18.13;;
63095;SDS011;49184;55.596;37.770;2022-12-10T16:03:02;46.80;;;19.37;;
63095;SDS011;49184;55.596;37.770;2022-12-10T16:05:45;42.80;;;18.38;;
63095;SDS011;49184;55.596;37.770;2022-12-10T16:49:24;27.20;;;12.13;;
63095;SDS011;49184;55.596;37.770;2022-12-10T16:51:56;22.92;;;11.63;;
63095;SDS011;49184;55.596;37.770;2022-12-10T16:54:24;20.23;;;10.90;;
63095;SDS011;49184;55.596;37.770;2022-12-10T16:56:54;22.13;;;11.77;;
63095;SDS011;49184;55.596;37.770;2022-12-10T16:59:49;19.33;;;10.25;;
63095;SDS011;49184;55.596;37.770;2022-12-10T17:02:45;18.65;;;10.52;;
63095;SDS011;49184;55.596;37.770;2022-12-10T17:05:26;20.98;;;10.25;;
63095;SDS011;49184;55.596;37.770;2022-12-10T17:08:21;19.27;;;11.02;;
63095;SDS011;49184;55.596;37.770;2022-12-10T17:10:52;22.20;;;11.65;;
63095;SDS011;49184;55.596;37.770;2022-12-10T17:13:38;18.85;;;10.25;;
63095;SDS011;49184;55.596;37.770;2022-12-10T17:16:14;26.50;;;15.00;;
63095;SDS011;49184;55.596;37.770;2022-12-10T17:18:47;23.80;;;14.18;;
63095;SDS011;49184;55.596;37.770;2022-12-10T17:21:14;22.45;;;13.23;;
63095;SDS011;49184;55.596;37.770;2022-12-10T17:23:41;22.85;;;12.43;;
63095;SDS011;49184;55.596;37.770;2022-12-10T17:26:10;23.70;;;12.53;;
63095;SDS011;49184;55.596;37.770;2022-12-10T17:28:46;25.25;;;14.13;;
63095;SDS011;49184;55.596;37.770;2022-12-10T17:31:17;26.55;;;11.57;;
63095;SDS011;49184;55.596;37.770;2022-12-10T17:33:43;31.98;;;13.63;;
63095;SDS011;49184;55.596;37.770;2022-12-10T17:36:12;29.48;;;14.50;;
63095;SDS011;49184;55.596;37.770;2022-12-10T17:38:40;26.50;;;13.93;;
63095;SDS011;49184;55.596;37.770;2022-12-10T17:41:09;21.13;;;9.77;;
63095;SDS011;49184;55.596;37.770;2022-12-10T17:43:42;24.27;;;12.63;;
63095;SDS011;49184;55.596;37.770;2022-12-10T17:46:15;16.42;;;10.50;;
63095;SDS011;49184;55.596;37.770;2022-12-10T17:48:47;16.77;;;8.68;;
63095;SDS011;49184;55.596;37.770;2022-12-10T17:51:21;17.10;;;9.70;;
63095;SDS011;49184;55.596;37.770;2022-12-10T17:53:52;13.85;;;7.65;;
63095;SDS011;49184;55.596;37.770;2022-12-10T17:56:22;14.68;;;8.93;;
63095;SDS011;49184;55.596;37.770;2022-12-10T17:58:50;13.20;;;7.25;;
63095;SDS011;49184;55.596;37.770;2022-12-10T18:01:19;14.15;;;7.93;;
63095;SDS011;49184;55.596;37.770;2022-12-10T18:03:45;15.70;;;8.77;;
63095;SDS011;49184;55.596;37.770;2022-12-10T18:06:19;13.38;;;7.75;;
63095;SDS011;49184;55.596;37.770;2022-12-10T18:08:50;20.90;;;13.70;;
63095;SDS011;49184;55.596;37.770;2022-12-10T18:11:19;22.45;;;15.07;;
63095;SDS011;49184;55.596;37.770;2022-12-10T18:13:50;16.88;;;10.23;;
63095;SDS011;49184;55.596;37.770;2022-12-10T18:16:20;13.60;;;8.77;;
63095;SDS011;49184;55.596;37.770;2022-12-10T18:18:57;15.38;;;8.45;;
63095;SDS011;49184;55.596;37.770;2022-12-10T18:21:25;15.43;;;11.65;;
63095;SDS011;49184;55.596;37.770;2022-12-10T18:23:52;11.05;;;7.32;;
63095;SDS011;49184;55.596;37.770;2022-12-10T18:26:20;17.23;;;11.43;;
63095;SDS011;49184;55.596;37.770;2022-12-10T18:28:54;24.45;;;12.40;;
63095;SDS011;49184;55.596;37.770;2022-12-10T18:31:23;19.98;;;12.13;;
63095;SDS011;49184;55.596;37.770;2022-12-10T18:33:56;12.20;;;8.02;;
63095;SDS011;49184;55.596;37.770;2022-12-10T18:36:27;16.20;;;8.70;;
63095;SDS011;49184;55.596;37.770;2022-12-10T18:38:59;25.55;;;15.02;;
63095;SDS011;49184;55.596;37.770;2022-12-10T18:41:29;18.90;;;11.65;;
63095;SDS011;49184;55.596;37.770;2022-12-10T18:43:59;19.30;;;11.38;;
63095;SDS011;49184;55.596;37.770;2022-12-10T18:46:26;16.27;;;10.17;;
63095;SDS011;49184;55.596;37.770;2022-12-10T18:48:59;20.23;;;12.35;;
63095;SDS011;49184;55.596;37.770;2022-12-10T18:51:29;16.25;;;7.88;;
63095;SDS011;49184;55.596;37.770;2022-12-10T19:03:29;8.95;;;5.57;;
63095;SDS011;49184;55.596;37.770;2022-12-10T19:05:58;9.05;;;6.03;;
63095;SDS011;49184;55.596;37.770;2022-12-10T19:08:28;8.10;;;5.13;;
63095;SDS011;49184;55.596;37.770;2022-12-10T19:10:58;14.93;;;9.35;;
63095;SDS011;49184;55.596;37.770;2022-12-10T19:13:25;10.98;;;7.13;;
63095;SDS011;49184;55.596;37.770;2022-12-10T19:15:55;10.98;;;7.18;;
63095;SDS011;49184;55.596;37.770;2022-12-10T19:18:25;32.72;;;16.40;;
63095;SDS011;49184;55.596;37.770;2022-12-10T19:21:08;13.32;;;7.93;;
63095;SDS011;49184;55.596;37.770;2022-12-10T19:23:40;9.32;;;6.15;;
63095;SDS011;49184;55.596;37.770;2022-12-10T19:29:33;10.48;;;6.68;;
63095;SDS011;49184;55.596;37.770;2022-12-10T19:32:17;6.80;;;3.97;;
63095;SDS011;49184;55.596;37.770;2022-12-10T19:34:48;14.18;;;8.15;;
63095;SDS011;49184;55.596;37.770;2022-12-10T19:37:16;16.08;;;9.35;;
63095;SDS011;49184;55.596;37.770;2022-12-10T19:39:45;6.78;;;4.18;;
63095;SDS011;49184;55.596;37.770;2022-12-10T19:42:11;6.22;;;3.97;;
63095;SDS011;49184;55.596;37.770;2022-12-10T19:44:39;5.95;;;3.53;;
63095;SDS011;49184;55.596;37.770;2022-12-10T19:47:16;6.10;;;3.78;;
63095;SDS011;49184;55.596;37.770;2022-12-10T19:49:46;6.68;;;3.78;;
63095;SDS011;49184;55.596;37.770;2022-12-10T19:52:19;5.90;;;3.67;;
63095;SDS011;49184;55.596;37.770;2022-12-10T19:54:57;4.63;;;3.03;;
63095;SDS011;49184;55.596;37.770;2022-12-10T19:57:28;5.88;;;3.55;;
63095;SDS011;49184;55.596;37.770;2022-12-10T19:59:55;5.83;;;3.97;;
63095;SDS011;49184;55.596;37.770;2022-12-10T20:02:22;4.80;;;3.40;;
63095;SDS011;49184;55.596;37.770;2022-12-10T20:04:53;5.38;;;3.50;;
63095;SDS011;49184;55.596;37.770;2022-12-10T20:07:21;5.15;;;3.35;;
63095;SDS011;49184;55.596;37.770;2022-12-10T20:10:00;4.90;;;3.03;;
63095;SDS011;49184;55.596;37.770;2022-12-10T20:12:33;5.53;;;3.38;;
63095;SDS011;49184;55.596;37.770;2022-12-10T20:15:02;6.00;;;3.40;;
63095;SDS011;49184;55.596;37.770;2022-12-10T20:17:32;6.32;;;3.88;;
63095;SDS011;49184;55.596;37.770;2022-12-10T20:20:05;5.78;;;3.63;;
63095;SDS011;49184;55.596;37.770;2022-12-10T20:22:32;6.13;;;3.80;;
63095;SDS011;49184;55.596;37.770;2022-12-10T20:25:05;6.85;;;3.80;;
63095;SDS011;49184;55.596;37.770;2022-12-10T20:27:34;7.90;;;4.55;;
63095;SDS011;49184;55.596;37.770;2022-12-10T20:30:01;8.48;;;4.20;;
63095;SDS011;49184;55.596;37.770;2022-12-10T20:32:31;8.10;;;4.85;;
63095;SDS011;49184;55.596;37.770;2022-12-10T20:34:59;7.45;;;4.60;;
63095;SDS011;49184;55.596;37.770;2022-12-10T20:37:29;6.50;;;4.38;;
63095;SDS011;49184;55.596;37.770;2022-12-10T20:40:01;5.25;;;3.60;;
63095;SDS011;49184;55.596;37.770;2022-12-10T20:42:29;6.60;;;4.30;;
63095;SDS011;49184;55.596;37.770;2022-12-10T20:44:55;9.10;;;4.80;;
63095;SDS011;49184;55.596;37.770;2022-12-10T20:47:26;6.47;;;4.63;;
63095;SDS011;49184;55.596;37.770;2022-12-10T20:49:52;8.48;;;4.75;;
63095;SDS011;49184;55.596;37.770;2022-12-10T20:52:18;6.18;;;4.40;;
63095;SDS011;49184;55.596;37.770;2022-12-10T20:54:45;7.50;;;4.20;;
63095;SDS011;49184;55.596;37.770;2022-12-10T20:57:13;8.70;;;4.60;;
63095;SDS011;49184;55.596;37.770;2022-12-10T20:59:41;6.80;;;3.97;;
63095;SDS011;49184;55.596;37.770;2022-12-10T21:02:08;6.35;;;4.38;;
63095;SDS011;49184;55.596;37.770;2022-12-10T21:04:35;9.48;;;4.65;;
63095;SDS011;49184;55.596;37.770;2022-12-10T21:07:08;6.13;;;4.45;;
63095;SDS011;49184;55.596;37.770;2022-12-10T21:09:38;8.25;;;4.72;;
63095;SDS011;49184;55.596;37.770;2022-12-10T21:12:13;6.40;;;4.60;;
63095;SDS011;49184;55.596;37.770;2022-12-10T21:17:23;7.15;;;4.65;;
63095;SDS011;49184;55.596;37.770;2022-12-10T21:19:52;7.55;;;4.55;;
63095;SDS011;49184;55.596;37.770;2022-12-10T21:24:53;6.03;;;4.35;;
63095;SDS011;49184;55.596;37.770;2022-12-10T21:27:22;7.25;;;4.53;;
63095;SDS011;49184;55.596;37.770;2022-12-10T21:29:50;7.18;;;4.43;;
63095;SDS011;49184;55.596;37.770;2022-12-10T21:32:22;8.90;;;5.47;;
63095;SDS011;49184;55.596;37.770;2022-12-10T21:34:49;9.05;;;5.65;;
63095;SDS011;49184;55.596;37.770;2022-12-10T21:37:20;6.55;;;4.85;;
63095;SDS011;49184;55.596;37.770;2022-12-10T21:39:49;8.02;;;5.38;;
63095;SDS011;49184;55.596;37.770;2022-12-10T21:42:17;7.93;;;5.45;;
63095;SDS011;49184;55.596;37.770;2022-12-10T21:45:02;7.25;;;4.88;;
63095;SDS011;49184;55.596;37.770;2022-12-10T21:47:30;9.00;;;5.60;;
63095;SDS011;49184;55.596;37.770;2022-12-10T21:49:56;9.80;;;6.40;;
63095;SDS011;49184;55.596;37.770;2022-12-10T21:52:26;13.60;;;6.68;;
63095;SDS011;49184;55.596;37.770;2022-12-10T21:54:54;8.60;;;6.15;;
63095;SDS011;49184;55.596;37.770;2022-12-10T21:58:10;11.07;;;6.55;;
63095;SDS011;49184;55.596;37.770;2022-12-10T22:01:10;11.30;;;6.90;;
63095;SDS011;49184;55.596;37.770;2022-12-10T22:03:39;8.82;;;6.18;;
63095;SDS011;49184;55.596;37.770;2022-12-10T22:06:06;8.50;;;5.93;;
63095;SDS011;49184;55.596;37.770;2022-12-10T22:08:33;9.32;;;5.82;;
63095;SDS011;49184;55.596;37.770;2022-12-10T22:13:29;9.43;;;5.68;;
63095;SDS011;49184;55.596;37.770;2022-12-10T22:15:55;8.82;;;5.75;;
63095;SDS011;49184;55.596;37.770;2022-12-10T22:18:27;7.70;;;5.60;;
63095;SDS011;49184;55.596;37.770;2022-12-10T22:21:00;12.07;;;6.30;;
63095;SDS011;49184;55.596;37.770;2022-12-10T22:23:37;9.05;;;6.00;;
63095;SDS011;49184;55.596;37.770;2022-12-10T22:26:09;10.52;;;6.57;;
63095;SDS011;49184;55.596;37.770;2022-12-10T22:29:04;9.43;;;6.57;;
63095;SDS011;49184;55.596;37.770;2022-12-10T22:31:31;11.68;;;7.55;;
63095;SDS011;49184;55.596;37.770;2022-12-10T22:33:58;10.57;;;6.95;;
63095;SDS011;49184;55.596;37.770;2022-12-10T22:36:33;10.60;;;6.75;;
63095;SDS011;49184;55.596;37.770;2022-12-10T22:39:03;9.75;;;6.32;;
63095;SDS011;49184;55.596;37.770;2022-12-10T22:41:48;9.13;;;5.68;;
63095;SDS011;49184;55.596;37.770;2022-12-10T22:44:15;9.98;;;6.45;;
63095;SDS011;49184;55.596;37.770;2022-12-10T22:46:44;9.30;;;6.20;;
63095;SDS011;49184;55.596;37.770;2022-12-10T22:49:13;9.20;;;6.53;;
63095;SDS011;49184;55.596;37.770;2022-12-10T22:51:40;9.55;;;6.38;;
63095;SDS011;49184;55.596;37.770;2022-12-10T22:54:06;12.40;;;6.50;;
63095;SDS011;49184;55.596;37.770;2022-12-10T22:56:32;9.75;;;6.50;;
63095;SDS011;49184;55.596;37.770;2022-12-10T22:58:59;8.70;;;5.68;;
63095;SDS011;49184;55.596;37.770;2022-12-10T23:01:27;10.20;;;6.38;;
63095;SDS011;49184;55.596;37.770;2022-12-10T23:03:53;11.38;;;5.88;;
63095;SDS011;49184;55.596;37.770;2022-12-10T23:06:20;13.70;;;6.43;;
63095;SDS011;49184;55.596;37.770;2022-12-10T23:08:49;10.02;;;6.40;;
63095;SDS011;49184;55.596;37.770;2022-12-10T23:11:15;9.60;;;6.43;;
63095;SDS011;49184;55.596;37.770;2022-12-10T23:13:43;10.57;;;6.85;;
63095;SDS011;49184;55.596;37.770;2022-12-10T23:16:12;9.55;;;6.45;;
63095;SDS011;49184;55.596;37.770;2022-12-10T23:18:41;11.55;;;7.15;;
63095;SDS011;49184;55.596;37.770;2022-12-10T23:21:12;9.05;;;6.55;;
63095;SDS011;49184;55.596;37.770;2022-12-10T23:23:41;9.60;;;6.30;;
63095;SDS011;49184;55.596;37.770;2022-12-10T23:26:07;10.15;;;6.13;;
63095;SDS011;49184;55.596;37.770;2022-12-10T23:28:33;10.15;;;7.22;;
63095;SDS011;49184;55.596;37.770;2022-12-10T23:31:00;10.43;;;6.60;;
63095;SDS011;49184;55.596;37.770;2022-12-10T23:33:26;13.05;;;6.82;;
63095;SDS011;49184;55.596;37.770;2022-12-10T23:35:53;11.65;;;6.10;;
63095;SDS011;49184;55.596;37.770;2022-12-10T23:40:49;11.38;;;6.70;;
63095;SDS011;49184;55.596;37.770;2022-12-10T23:43:15;13.85;;;6.20;;
63095;SDS011;49184;55.596;37.770;2022-12-10T23:45:41;9.68;;;6.65;;
63095;SDS011;49184;55.596;37.770;2022-12-10T23:48:08;10.15;;;6.53;;